CYPT weather

Pelee Island Airport
Pelee Island, Ontario, Canada

Public forecast

Using degrees Celsius for public forecast. Weather courtesy of forecast.io.

Closest aviation weather report (METAR) to Pelee Island Airport

Closest report is Carl R Keller Field, 18.0 nm (33.4 km) SSW. Retrieved 2019/11/14 02:35 UTC (0 seconds ago):

KPCW 140235Z AUTO 19012G18KT 10SM OVC110 M04/M08 A3015 RMK AO2

Closest aviation forecast (TAF) to Pelee Island Airport

Closest forecast is Windsor Airport, 32.2 nm (59.6 km) NNW. Retrieved 2019-11-14 00:45 UTC (2 hours ago):

TAF CYQG 132342Z 1400/1424 19010G20KT P6SM OVC100 FM140400 23010KT P6SM -SN SCT040 OVC080 TEMPO 1404/1409 21/2SM -SN OVC040 FM140900 24012KT P6SM -SN BKN050 FM141600 23010KT P6SM BKN015 OVC030 RMK FCST BASED ON AUTO OBS NXT FCST BY 140600Z